Sint-Laureins, Belgium
Current Conditions -  °F | °C
As of 9:25 AM on Tuesday 21 Oct 2014 (Local Time) from EHFS Reporting Station
Drizzle Drizzle  
Wind Chill: 55°   Ceiling: 1000
Heat Index: 55°   Visibility: 2.6mi
Dew Point: 54°   Wind: 26mph
Humidity: 94%   Direction: 200°SSW
Pressure: 29.65"   Gusts: NA
Location:  51.24°N, 3.52°E
Report Text: EHFS 210725Z AUTO 20023KT 4300 -DZ SCT006/// SCT008///BKN010/// 13/12 Q1004
Loading
Personal Weather Stations






























Interactive Weather Map
Tropical Storm Tracking
New forecast layout! Learn more

10-Day Weather Forecast

Advertisements
Track Severe Weather on mobile